Time;durP1;ratioP1;P1;durP2;ratioP2;P2;SDS_P1;SDS_P2;PMS_P1;PMS_P2;Temp;Humidity;BMP_temperature;BMP_pressure;BME280_temperature;BME280_humidity;BME280_pressure;Samples;Min_cycle;Max_cycle;Signal;HPM_P1;HPM_P2
2023/06/13 00:00:46;;;;;;;2.70;1.80;;;;;;;11.54;63.92;100671.91;5129913;27;20223;-67
2023/06/13 00:03:14;;;;;;;2.50;1.60;;;;;;;11.48;64.03;100665.06;5132860;27;20252;-66
2023/06/13 00:05:45;;;;;;;4.57;2.70;;;;;;;11.42;64.79;100672.00;5131855;27;20242;-67
2023/06/13 00:08:17;;;;;;;4.10;2.90;;;;;;;11.35;65.62;100666.00;5128838;27;20302;-68
2023/06/13 00:10:48;;;;;;;6.73;4.20;;;;;;;11.22;65.88;100666.91;5131728;27;20215;-67
2023/06/13 00:13:17;;;;;;;8.17;4.77;;;;;;;11.16;66.28;100670.38;5132640;27;20627;-67
2023/06/13 00:15:50;;;;;;;7.17;4.33;;;;;;;11.13;66.52;100676.41;5130699;27;20240;-68
2023/06/13 00:18:20;;;;;;;9.47;4.97;;;;;;;11.09;66.60;100669.53;5131964;27;20199;-66
2023/06/13 00:20:48;;;;;;;9.40;4.83;;;;;;;11.07;66.33;100668.69;5131677;27;20292;-64
2023/06/13 00:23:17;;;;;;;9.47;5.30;;;;;;;11.08;66.59;100664.38;5130826;27;20665;-65
2023/06/13 00:25:47;;;;;;;11.03;6.00;;;;;;;11.06;66.96;100664.38;5130601;27;20291;-68
2023/06/13 00:28:15;;;;;;;9.47;5.57;;;;;;;11.10;66.21;100667.81;5131093;27;20206;-67
2023/06/13 00:30:45;;;;;;;8.20;5.63;;;;;;;11.12;66.21;100666.97;5130380;27;20282;-67
2023/06/13 00:33:16;;;;;;;10.27;5.70;;;;;;;11.16;66.23;100656.59;5129165;27;20248;-66
2023/06/13 00:35:45;;;;;;;6.87;4.90;;;;;;;11.16;66.62;100652.31;5134444;27;20231;-65
2023/06/13 00:38:13;;;;;;;7.23;4.77;;;;;;;11.16;66.91;100644.59;5131001;27;20211;-67
2023/06/13 00:40:42;;;;;;;8.50;4.30;;;;;;;11.13;66.77;100640.28;5131880;27;20641;-67
2023/06/13 00:43:11;;;;;;;7.57;4.37;;;;;;;11.17;66.70;100638.56;5133190;27;20222;-65
2023/06/13 00:45:40;;;;;;;7.70;4.80;;;;;;;11.22;66.89;100638.53;5131526;27;20256;-66
2023/06/13 00:48:08;;;;;;;6.33;4.47;;;;;;;11.23;67.50;100632.50;5131369;27;20463;-65
2023/06/13 00:50:40;;;;;;;9.53;4.90;;;;;;;11.25;67.42;100630.78;5129405;27;20642;-66
2023/06/13 00:53:10;;;;;;;6.87;4.30;;;;;;;11.29;67.26;100635.06;5130888;27;20248;-64
2023/06/13 00:55:39;;;;;;;7.67;4.47;;;;;;;11.31;66.71;100633.34;5129709;27;20563;-67
2023/06/13 00:58:07;;;;;;;4.43;4.00;;;;;;;11.30;67.21;100631.59;5126193;27;20540;-65
2023/06/13 01:00:38;;;;;;;7.53;4.10;;;;;;;11.29;67.44;100628.16;5130017;27;20603;-66
2023/06/13 01:03:09;;;;;;;6.93;4.10;;;;;;;11.29;67.57;100627.31;5134987;27;20291;-65
2023/06/13 01:05:38;;;;;;;7.47;4.13;;;;;;;11.34;67.78;100623.88;5131385;27;20654;-66
2023/06/13 01:08:10;;;;;;;8.07;4.33;;;;;;;11.42;66.88;100613.50;5131761;27;20562;-67
2023/06/13 01:10:41;;;;;;;6.23;3.83;;;;;;;11.48;66.88;100617.75;5132080;27;20613;-67
2023/06/13 01:13:16;;;;;;;6.77;4.10;;;;;;;11.46;67.15;100622.94;5127301;27;20203;-66
2023/06/13 01:15:53;;;;;;;7.20;3.80;;;;;;;11.48;67.13;100616.03;5136053;27;20194;-67
2023/06/13 01:18:24;;;;;;;5.70;3.83;;;;;;;11.50;67.08;100606.56;5126742;27;20297;-67
2023/06/13 01:20:56;;;;;;;6.10;3.97;;;;;;;11.54;66.83;100609.97;5127111;27;20211;-66
2023/06/13 01:23:38;;;;;;;5.07;3.67;;;;;;;11.58;67.21;100609.94;5132497;27;20223;-66
2023/06/13 01:26:14;;;;;;;6.23;3.10;;;;;;;11.61;67.05;100615.09;5128835;27;20627;-67
2023/06/13 01:28:51;;;;;;;4.13;3.40;;;;;;;11.66;66.76;100606.44;5130306;27;20579;-66
2023/06/13 01:31:23;;;;;;;6.73;3.23;;;;;;;11.68;66.59;100599.56;5129222;27;20255;-66
2023/06/13 01:33:52;;;;;;;4.07;3.20;;;;;;;11.67;66.93;100603.00;5133036;27;20199;-66
2023/06/13 01:36:21;;;;;;;4.27;3.30;;;;;;;11.66;67.07;100603.88;5129849;27;20607;-67
2023/06/13 01:38:50;;;;;;;6.70;3.40;;;;;;;11.61;67.09;100602.19;5127228;27;20207;-65
2023/06/13 01:41:18;;;;;;;3.80;3.40;;;;;;;11.58;67.13;100602.19;5135274;27;20282;-65
2023/06/13 01:43:48;;;;;;;6.10;3.30;;;;;;;11.54;67.18;100591.91;5127943;27;20214;-64
2023/06/13 01:46:24;;;;;;;4.03;3.43;;;;;;;11.54;67.20;100605.66;5132704;27;20207;-66
2023/06/13 01:49:03;;;;;;;4.40;3.33;;;;;;;11.53;67.91;100606.53;5127046;27;20497;-65
2023/06/13 01:51:39;;;;;;;6.63;3.57;;;;;;;11.57;67.62;100607.38;5123721;27;20338;-65
2023/06/13 01:54:11;;;;;;;3.73;3.23;;;;;;;11.58;67.68;100599.63;5129788;27;20595;-65
2023/06/13 01:56:42;;;;;;;7.70;4.03;;;;;;;11.63;67.71;100601.31;5126491;27;20196;-64
2023/06/13 01:59:16;;;;;;;3.77;3.33;;;;;;;11.69;67.54;100601.28;5130185;27;20202;-65
2023/06/13 02:01:45;;;;;;;7.37;3.40;;;;;;;11.70;67.21;100598.66;5128630;27;20250;-65
2023/06/13 02:04:13;;;;;;;6.03;3.53;;;;;;;11.73;67.39;100603.81;5132072;27;20574;-68
2023/06/13 02:06:41;;;;;;;5.23;3.60;;;;;;;11.71;67.59;100600.41;5129784;27;20222;-65
2023/06/13 02:09:09;;;;;;;5.73;3.60;;;;;;;11.60;68.11;100605.63;5129462;27;20199;-65
2023/06/13 02:11:37;;;;;;;6.10;3.43;;;;;;;11.60;68.49;100597.03;5130642;27;20203;-64
2023/06/13 02:14:06;;;;;;;6.70;3.87;;;;;;;11.63;68.62;100591.84;5130110;27;20593;-65
2023/06/13 02:16:39;;;;;;;4.43;3.17;;;;;;;11.63;68.87;100590.97;5124950;27;20283;-66
2023/06/13 02:19:08;;;;;;;4.77;3.33;;;;;;;11.58;69.02;100591.03;5124465;27;20206;-67
2023/06/13 02:21:36;;;;;;;5.50;3.33;;;;;;;11.58;69.08;100599.63;5129622;27;20237;-65
2023/06/13 02:24:05;;;;;;;6.57;3.97;;;;;;;11.55;69.87;100596.19;5133151;27;20199;-66
2023/06/13 02:26:32;;;;;;;6.70;3.90;;;;;;;11.57;70.05;100600.50;5131909;27;20229;-64
2023/06/13 02:29:02;;;;;;;4.17;3.40;;;;;;;11.57;70.60;100597.06;5131052;27;20227;-65
2023/06/13 02:31:35;;;;;;;6.37;3.73;;;;;;;11.54;70.49;100594.50;5132891;27;20212;-65
2023/06/13 02:34:05;;;;;;;7.47;4.07;;;;;;;11.47;70.88;100597.97;5128926;27;20199;-65
2023/06/13 02:36:33;;;;;;;6.03;3.73;;;;;;;11.50;71.23;100609.13;5129133;27;20196;-66
2023/06/13 02:39:02;;;;;;;6.60;3.50;;;;;;;11.55;71.50;100606.53;5129375;27;20210;-65
2023/06/13 02:41:30;;;;;;;4.60;2.93;;;;;;;11.52;70.99;100599.66;5132270;27;20211;-64
2023/06/13 02:43:58;;;;;;;4.63;3.33;;;;;;;11.49;71.39;100604.84;5133150;27;20731;-64
2023/06/13 02:46:27;;;;;;;6.03;3.37;;;;;;;11.49;71.44;100601.41;5134302;27;20646;-66
2023/06/13 02:48:55;;;;;;;3.10;2.80;;;;;;;11.43;71.11;100597.13;5133782;27;20200;-66
2023/06/13 02:51:24;;;;;;;3.20;2.80;;;;;;;11.39;71.51;100590.28;5132449;27;20566;-65
2023/06/13 02:53:52;;;;;;;4.27;2.77;;;;;;;11.33;71.80;100598.06;5130517;27;20211;-66
2023/06/13 02:56:21;;;;;;;3.97;2.80;;;;;;;11.28;72.23;100592.94;5134307;27;20213;-65
2023/06/13 02:58:49;;;;;;;6.73;2.87;;;;;;;11.31;72.77;100586.91;5135601;27;20199;-65
2023/06/13 03:01:18;;;;;;;3.70;2.97;;;;;;;11.35;72.63;100593.75;5132252;27;20571;-64
2023/06/13 03:03:47;;;;;;;3.60;2.80;;;;;;;11.39;72.91;100592.88;5134025;27;20223;-66
2023/06/13 03:06:17;;;;;;;3.10;2.77;;;;;;;11.42;72.40;100597.16;5132241;27;20248;-65
2023/06/13 03:08:47;;;;;;;2.57;2.37;;;;;;;11.38;72.36;100598.91;5133529;27;20666;-65
2023/06/13 03:11:16;;;;;;;3.03;2.60;;;;;;;11.35;72.56;100593.75;5135863;27;20258;-64
2023/06/13 03:13:44;;;;;;;3.67;3.00;;;;;;;11.37;72.93;100594.59;5130789;27;20203;-64
2023/06/13 03:16:12;;;;;;;3.90;3.10;;;;;;;11.36;73.10;100588.56;5131137;27;20195;-63
2023/06/13 03:18:41;;;;;;;3.67;3.00;;;;;;;11.36;73.24;100587.72;5133920;27;20554;-64
2023/06/13 03:21:09;;;;;;;4.47;3.20;;;;;;;11.41;73.40;100596.28;5135579;27;20207;-65
2023/06/13 03:23:37;;;;;;;3.23;2.70;;;;;;;11.45;73.54;100592.84;5132761;27;20621;-65
2023/06/13 03:26:06;;;;;;;7.17;3.50;;;;;;;11.51;73.41;100584.19;5132406;27;20724;-65
2023/06/13 03:28:34;;;;;;;4.97;3.30;;;;;;;11.57;73.48;100587.59;5134426;27;20199;-64
2023/06/13 03:31:02;;;;;;;3.57;2.80;;;;;;;11.60;73.65;100587.56;5134078;27;20392;-66
2023/06/13 03:33:30;;;;;;;3.83;3.03;;;;;;;11.67;73.39;100587.50;5130710;27;20207;-65
2023/06/13 03:35:58;;;;;;;3.30;3.00;;;;;;;11.65;73.15;100591.84;5129901;27;20573;-65
2023/06/13 03:38:27;;;;;;;5.00;3.73;;;;;;;11.61;73.60;100586.69;5132074;27;20192;-63
2023/06/13 03:40:55;;;;;;;3.67;3.17;;;;;;;11.62;74.03;100590.13;5130555;27;20669;-63
2023/06/13 03:43:26;;;;;;;3.40;2.90;;;;;;;11.64;73.58;100582.38;5131150;27;20222;-64
2023/06/13 03:45:54;;;;;;;3.87;3.40;;;;;;;11.58;73.55;100581.56;5136306;27;20225;-63
2023/06/13 03:48:22;;;;;;;5.60;3.50;;;;;;;11.61;74.07;100580.69;5132824;27;20192;-65
2023/06/13 03:50:51;;;;;;;3.60;3.20;;;;;;;11.65;74.26;100589.25;5129742;27;20211;-65
2023/06/13 03:53:19;;;;;;;4.57;3.67;;;;;;;11.69;73.96;100585.78;5129924;27;20227;-64
2023/06/13 03:55:47;;;;;;;3.47;3.00;;;;;;;11.72;73.92;100575.44;5130348;27;20561;-66
2023/06/13 03:58:15;;;;;;;4.17;3.47;;;;;;;11.75;74.04;100581.44;5131512;27;20207;-65
2023/06/13 04:00:45;;;;;;;4.00;3.40;;;;;;;11.74;74.33;100578.84;5133170;27;20225;-64
2023/06/13 04:03:13;;;;;;;5.57;3.60;;;;;;;11.75;74.47;100585.75;5134311;27;20234;-64
2023/06/13 04:05:41;;;;;;;4.70;3.37;;;;;;;11.76;74.82;100577.97;5136425;27;20195;-64
2023/06/13 04:08:10;;;;;;;4.17;3.47;;;;;;;11.77;75.00;100584.84;5132530;27;20645;-65
2023/06/13 04:10:38;;;;;;;3.83;3.40;;;;;;;11.76;75.39;100583.13;5130419;27;20597;-63
2023/06/13 04:13:06;;;;;;;5.93;3.67;;;;;;;11.73;75.32;100577.16;5131504;27;20633;-63
2023/06/13 04:15:34;;;;;;;3.67;3.30;;;;;;;11.71;75.19;100579.75;5132748;27;20732;-64
2023/06/13 04:18:04;;;;;;;6.93;3.97;;;;;;;11.65;75.36;100574.63;5136266;27;20195;-64
2023/06/13 04:20:34;;;;;;;5.17;3.53;;;;;;;11.71;75.75;100576.28;5131386;27;20229;-68
2023/06/13 04:23:03;;;;;;;4.37;3.87;;;;;;;11.77;75.89;100568.50;5132121;27;20265;-68
2023/06/13 04:25:32;;;;;;;4.50;3.43;;;;;;;11.78;75.69;100572.78;5132679;27;20268;-65
2023/06/13 04:28:00;;;;;;;4.37;3.67;;;;;;;11.83;75.32;100569.34;5132007;27;20199;-68
2023/06/13 04:30:28;;;;;;;4.40;3.90;;;;;;;11.81;75.25;100572.78;5125635;27;20196;-62
2023/06/13 04:32:57;;;;;;;7.90;3.67;;;;;;;11.80;75.58;100568.47;5132451;27;20611;-65
2023/06/13 04:35:27;;;;;;;5.33;3.83;;;;;;;11.81;75.76;100570.19;5128845;27;20227;-63
2023/06/13 04:37:56;;;;;;;4.30;3.57;;;;;;;11.79;75.58;100569.38;5139008;27;20243;-63
2023/06/13 04:40:31;;;;;;;4.80;3.37;;;;;;;11.70;75.64;100564.25;5133176;27;20199;-64
2023/06/13 04:43:03;;;;;;;4.37;3.97;;;;;;;11.67;75.97;100567.75;5129946;27;20285;-63
2023/06/13 04:45:32;;;;;;;4.73;3.60;;;;;;;11.72;76.04;100572.84;5127036;27;20676;-64
2023/06/13 04:48:03;;;;;;;4.10;3.40;;;;;;;11.65;75.50;100573.78;5130082;27;20199;-64
2023/06/13 04:50:33;;;;;;;4.17;3.50;;;;;;;11.60;75.82;100569.50;5128297;27;20212;-65
2023/06/13 04:53:02;;;;;;;5.37;3.70;;;;;;;11.61;76.15;100568.63;5127680;27;20210;-64
2023/06/13 04:55:32;;;;;;;4.00;3.40;;;;;;;11.60;76.21;100577.25;5127499;27;20337;-62
2023/06/13 04:58:00;;;;;;;3.90;3.60;;;;;;;11.57;76.20;100572.09;5129090;27;20560;-66
2023/06/13 05:00:30;;;;;;;4.13;3.30;;;;;;;11.52;76.21;100573.00;5121690;27;20199;-65
2023/06/13 05:03:00;;;;;;;4.87;3.83;;;;;;;11.44;76.41;100569.59;5125751;27;20227;-65
2023/06/13 05:05:28;;;;;;;4.10;3.70;;;;;;;11.40;76.88;100575.66;5124187;27;21282;-65
2023/06/13 05:07:59;;;;;;;4.30;3.70;;;;;;;11.39;77.11;100581.69;5125383;27;20199;-66
2023/06/13 05:10:28;;;;;;;4.27;3.87;;;;;;;11.38;77.20;100575.69;5128961;27;20290;-66
2023/06/13 05:12:57;;;;;;;5.43;4.03;;;;;;;11.41;77.39;100577.38;5123747;27;20285;-67
2023/06/13 05:15:25;;;;;;;4.00;3.60;;;;;;;11.41;77.42;100573.06;5130532;27;20203;-66
2023/06/13 05:17:54;;;;;;;5.70;3.87;;;;;;;11.40;77.21;100578.25;5134124;27;20203;-66
2023/06/13 05:20:27;;;;;;;3.87;3.47;;;;;;;11.40;77.22;100579.09;5129533;27;20282;-65
2023/06/13 05:22:56;;;;;;;3.80;3.33;;;;;;;11.38;77.05;100575.69;5129570;27;20636;-65
2023/06/13 05:25:26;;;;;;;4.30;3.83;;;;;;;11.37;77.07;100573.94;5127425;27;20327;-64
2023/06/13 05:27:55;;;;;;;7.23;4.00;;;;;;;11.40;77.28;100579.09;5129622;27;20202;-64
2023/06/13 05:30:24;;;;;;;4.73;3.80;;;;;;;11.43;77.35;100579.06;5122582;27;20234;-65
2023/06/13 05:32:52;;;;;;;4.57;4.10;;;;;;;11.49;77.89;100573.88;5134125;27;20203;-63
2023/06/13 05:35:21;;;;;;;4.60;4.20;;;;;;;11.60;77.58;100579.81;5128766;27;20199;-64
2023/06/13 05:37:50;;;;;;;4.60;3.83;;;;;;;11.65;77.78;100576.34;5130791;27;20207;-64
2023/06/13 05:40:19;;;;;;;4.53;3.90;;;;;;;11.67;77.47;100572.03;5130416;27;20286;-64
2023/06/13 05:42:48;;;;;;;6.37;4.40;;;;;;;11.71;77.85;100576.28;5129114;27;20213;-65
2023/06/13 05:45:16;;;;;;;4.93;4.20;;;;;;;11.72;77.35;100583.19;5120754;27;20316;-64
2023/06/13 05:47:44;;;;;;;4.67;4.17;;;;;;;11.73;77.50;100580.56;5120784;27;20199;-64
2023/06/13 05:50:14;;;;;;;4.50;4.10;;;;;;;11.71;77.56;100573.69;5125052;27;20206;-65
2023/06/13 05:52:43;;;;;;;4.03;3.63;;;;;;;11.68;77.74;100578.91;5128458;27;20282;-65
2023/06/13 05:55:11;;;;;;;4.83;4.07;;;;;;;11.66;77.72;100570.31;5126934;27;20191;-65
2023/06/13 05:57:43;;;;;;;7.47;6.57;;;;;;;11.68;78.10;100573.75;5132491;27;20214;-64
2023/06/13 06:00:14;;;;;;;6.43;5.63;;;;;;;11.74;78.16;100568.53;5126681;27;20542;-66
2023/06/13 06:02:44;;;;;;;6.40;4.77;;;;;;;11.78;78.02;100565.03;5129173;27;20689;-67
2023/06/13 06:05:13;;;;;;;4.20;3.73;;;;;;;11.78;77.52;100570.22;5127456;27;20299;-66
2023/06/13 06:07:43;;;;;;;5.03;4.53;;;;;;;11.71;77.49;100569.44;5124462;27;20238;-68
2023/06/13 06:10:11;;;;;;;7.83;4.67;;;;;;;11.69;77.38;100565.97;5122860;27;20200;-66
2023/06/13 06:12:41;;;;;;;7.73;4.50;;;;;;;11.68;77.31;100569.44;5131310;27;20199;-68
2023/06/13 06:15:09;;;;;;;7.57;4.67;;;;;;;11.65;77.23;100563.44;5132913;27;20203;-66
2023/06/13 06:17:39;;;;;;;5.80;4.73;;;;;;;11.66;77.42;100575.47;5135732;27;20221;-67
2023/06/13 06:20:08;;;;;;;7.33;4.63;;;;;;;11.64;77.31;100572.06;5134400;27;20935;-69
2023/06/13 06:22:36;;;;;;;4.93;4.43;;;;;;;11.66;77.51;100560.84;5134726;27;20201;-66
2023/06/13 06:25:08;;;;;;;6.27;4.83;;;;;;;11.67;77.11;100572.03;5131660;27;20318;-66
2023/06/13 06:27:36;;;;;;;6.50;4.70;;;;;;;11.63;77.39;100571.19;5131440;27;20252;-68
2023/06/13 06:30:05;;;;;;;7.33;4.73;;;;;;;11.67;77.10;100567.75;5135594;27;20213;-67
2023/06/13 06:32:33;;;;;;;6.77;5.20;;;;;;;11.65;76.84;100569.47;5135602;27;20240;-67
2023/06/13 06:35:04;;;;;;;9.53;5.23;;;;;;;11.66;76.93;100572.91;5135646;27;20516;-65
2023/06/13 06:37:32;;;;;;;7.00;5.07;;;;;;;11.66;77.17;100563.44;5143927;27;20236;-66
2023/06/13 06:40:00;;;;;;;6.67;5.20;;;;;;;11.73;77.38;100569.41;5135269;27;20276;-66
2023/06/13 06:42:28;;;;;;;5.70;5.10;;;;;;;11.73;77.38;100559.06;5135251;27;20658;-67
2023/06/13 06:44:56;;;;;;;6.90;5.07;;;;;;;11.81;77.05;100568.47;5129089;27;20256;-66
2023/06/13 06:47:24;;;;;;;6.53;5.23;;;;;;;11.83;77.21;100573.63;5127397;27;20203;-65
2023/06/13 06:49:53;;;;;;;6.83;5.20;;;;;;;11.85;77.12;100569.31;5134118;27;20211;-66
2023/06/13 06:52:22;;;;;;;8.93;5.70;;;;;;;11.88;76.83;100569.31;5136801;27;20231;-67
2023/06/13 06:54:50;;;;;;;6.70;5.50;;;;;;;11.91;76.71;100565.84;5133595;27;20195;-69
2023/06/13 06:57:18;;;;;;;6.30;5.53;;;;;;;11.91;76.50;100569.28;5131987;27;20218;-67
2023/06/13 06:59:50;;;;;;;5.60;5.00;;;;;;;11.86;76.59;100568.47;5133101;27;20209;-67
2023/06/13 07:02:18;;;;;;;6.87;5.70;;;;;;;11.85;76.60;100571.91;5126808;27;20260;-64
2023/06/13 07:04:46;;;;;;;7.53;5.50;;;;;;;11.84;76.67;100575.38;5131356;27;20603;-63
2023/06/13 07:07:14;;;;;;;6.17;5.23;;;;;;;11.86;76.97;100563.31;5135670;27;20240;-64
2023/06/13 07:09:44;;;;;;;7.07;5.93;;;;;;;11.90;76.77;100565.00;5135415;27;20281;-64
2023/06/13 07:12:12;;;;;;;9.23;6.17;;;;;;;11.96;76.94;100564.91;5127621;27;20223;-63
2023/06/13 07:14:40;;;;;;;9.40;5.30;;;;;;;11.97;76.40;100565.81;5125518;27;20312;-64
2023/06/13 07:17:08;;;;;;;9.03;5.53;;;;;;;11.93;76.24;100566.66;5126925;27;20218;-64
2023/06/13 07:19:35;;;;;;;7.53;5.73;;;;;;;11.93;76.63;100570.13;5131665;27;20568;-64
2023/06/13 07:22:04;;;;;;;7.90;6.20;;;;;;;11.97;76.61;100566.66;5134077;27;20753;-64
2023/06/13 07:24:33;;;;;;;6.97;5.83;;;;;;;12.05;76.90;100569.16;5132349;27;20598;-64
2023/06/13 07:27:03;;;;;;;7.40;6.17;;;;;;;12.12;76.49;100575.13;5132334;27;20195;-69
2023/06/13 07:29:31;;;;;;;8.23;6.33;;;;;;;12.15;76.63;100570.81;5127904;27;20248;-69
2023/06/13 07:31:59;;;;;;;7.10;5.63;;;;;;;12.22;76.32;100572.41;5130282;27;20206;-71
2023/06/13 07:34:27;;;;;;;7.43;6.13;;;;;;;12.24;75.82;100562.94;5128446;27;20308;-69
2023/06/13 07:37:15;;;;;;;8.17;6.70;;;;;;;12.30;75.86;100559.47;5128983;27;20199;-69
2023/06/13 07:39:43;;;;;;;7.70;6.30;;;;;;;12.34;75.77;100555.97;5135329;27;20668;-69
2023/06/13 07:42:13;;;;;;;8.47;6.50;;;;;;;12.35;75.65;100555.09;5137084;27;20248;-69
2023/06/13 07:44:41;;;;;;;7.83;6.57;;;;;;;12.39;75.76;100553.31;5132879;27;20211;-70
2023/06/13 07:47:10;;;;;;;7.37;6.50;;;;;;;12.38;75.35;100552.47;5127631;27;20635;-70
2023/06/13 07:49:38;;;;;;;6.70;5.63;;;;;;;12.39;75.67;100555.91;5127837;27;20646;-70
2023/06/13 07:52:07;;;;;;;7.93;5.60;;;;;;;12.36;75.03;100543.88;5130485;27;20285;-71
2023/06/13 07:54:36;;;;;;;9.60;5.83;;;;;;;12.39;74.99;100558.50;5124842;27;20287;-68
2023/06/13 07:57:06;;;;;;;8.17;5.87;;;;;;;12.35;75.09;100555.09;5131158;27;20215;-72
2023/06/13 07:59:56;;;;;;;6.57;5.10;;;;;;;12.40;75.15;100557.59;5133825;27;20206;-72
2023/06/13 08:02:26;;;;;;;5.60;5.10;;;;;;;12.50;75.32;100557.50;5122198;27;20207;-74
2023/06/13 08:04:54;;;;;;;7.10;5.67;;;;;;;12.57;74.58;100547.94;5129502;27;20203;-76
2023/06/13 08:07:23;;;;;;;5.90;5.30;;;;;;;12.62;74.76;100553.06;5134484;27;20226;-76
2023/06/13 08:09:51;;;;;;;6.20;4.90;;;;;;;12.64;74.59;100553.91;5133988;27;20584;-76
2023/06/13 08:12:20;;;;;;;7.00;5.33;;;;;;;12.62;74.60;100551.31;5134121;27;20655;-75
2023/06/13 08:14:48;;;;;;;5.97;5.10;;;;;;;12.58;74.91;100545.34;5131056;27;20548;-75
2023/06/13 08:17:17;;;;;;;5.30;4.80;;;;;;;12.57;74.54;100546.22;5133262;27;20192;-74
2023/06/13 08:19:50;;;;;;;6.23;5.40;;;;;;;12.56;74.77;100547.09;5132843;27;20246;-71
2023/06/13 08:22:18;;;;;;;9.87;4.70;;;;;;;12.59;74.85;100546.19;5138313;27;20565;-71
2023/06/13 08:24:46;;;;;;;5.87;5.00;;;;;;;12.66;74.42;100552.16;5129761;27;20234;-71
2023/06/13 08:27:16;;;;;;;5.30;4.30;;;;;;;12.65;74.54;100543.53;5129129;27;20253;-71
2023/06/13 08:29:44;;;;;;;5.20;4.70;;;;;;;12.73;74.68;100558.94;5129055;27;20197;-66
2023/06/13 08:32:12;;;;;;;5.83;4.40;;;;;;;12.77;74.29;100551.13;5129003;27;20634;-66
2023/06/13 08:34:41;;;;;;;5.37;4.60;;;;;;;12.79;73.99;100549.41;5128926;27;20200;-68
2023/06/13 08:37:11;;;;;;;4.90;4.30;;;;;;;12.81;74.08;100547.66;5134597;27;20571;-66
2023/06/13 08:39:39;;;;;;;5.43;4.63;;;;;;;12.85;73.71;100545.00;5127173;27;20199;-65
2023/06/13 08:42:12;;;;;;;6.23;4.03;;;;;;;12.92;73.95;100539.72;5130923;27;20294;-64
2023/06/13 08:44:41;;;;;;;5.53;4.43;;;;;;;12.98;73.03;100538.81;5128240;27;20202;-64
2023/06/13 08:47:10;;;;;;;5.37;4.40;;;;;;;13.06;73.67;100543.00;5130066;27;20211;-64
2023/06/13 08:49:55;;;;;;;5.47;4.57;;;;;;;13.20;73.12;100544.53;5125388;27;20202;-65
2023/06/13 08:52:26;;;;;;;8.13;4.60;;;;;;;13.30;72.66;100541.00;5124983;27;20290;-66
2023/06/13 08:54:56;;;;;;;5.00;4.50;;;;;;;13.30;71.97;100546.16;5121326;27;20199;-65
2023/06/13 08:57:47;;;;;;;5.50;4.83;;;;;;;13.33;72.41;100546.13;5128081;27;20210;-66
2023/06/13 09:00:16;;;;;;;7.37;4.97;;;;;;;13.36;72.19;100546.06;5127988;27;20211;-65
2023/06/13 09:02:46;;;;;;;5.17;4.67;;;;;;;13.39;72.09;100543.41;5127373;27;20213;-64
2023/06/13 09:05:17;;;;;;;4.93;4.17;;;;;;;13.49;71.91;100555.34;5125063;27;20657;-64
2023/06/13 09:07:47;;;;;;;5.17;4.33;;;;;;;13.53;70.69;100549.25;5132797;27;20306;-67
2023/06/13 09:10:15;;;;;;;5.47;4.97;;;;;;;13.60;70.82;100551.75;5126782;27;20227;-66
2023/06/13 09:12:49;;;;;;;4.67;4.20;;;;;;;13.65;70.93;100552.53;5124355;27;20202;-66
2023/06/13 09:15:17;;;;;;;4.80;4.40;;;;;;;13.74;70.27;100552.38;5124582;27;20263;-67
2023/06/13 09:17:46;;;;;;;5.13;4.00;;;;;;;13.74;70.52;100553.22;5127087;27;20648;-61
2023/06/13 09:20:15;;;;;;;4.20;3.80;;;;;;;13.71;70.12;100557.59;5126382;27;20663;-62
2023/06/13 09:22:46;;;;;;;4.77;4.33;;;;;;;13.67;70.47;100555.94;5124615;27;20302;-61
2023/06/13 09:25:18;;;;;;;5.93;4.77;;;;;;;13.68;70.87;100552.47;5124383;27;20238;-61
2023/06/13 09:27:46;;;;;;;7.03;4.47;;;;;;;13.71;70.51;100557.59;5126738;27;20212;-61
2023/06/13 09:30:15;;;;;;;5.80;4.70;;;;;;;13.73;70.36;100559.31;5119979;27;20726;-63
2023/06/13 09:32:49;;;;;;;5.80;4.80;;;;;;;13.72;70.83;100560.16;5125098;27;20609;-62
2023/06/13 09:35:19;;;;;;;5.97;4.53;;;;;;;13.75;70.52;100559.25;5126506;27;20559;-62
2023/06/13 09:38:04;;;;;;;4.80;4.40;;;;;;;13.72;70.72;100565.34;5119284;27;20203;-63
2023/06/13 09:40:32;;;;;;;4.87;4.47;;;;;;;13.73;71.01;100559.31;5122663;27;20548;-62
2023/06/13 09:43:02;;;;;;;5.00;4.50;;;;;;;13.67;71.16;100550.78;5128037;27;20601;-62
2023/06/13 09:45:33;;;;;;;6.93;5.20;;;;;;;13.80;71.56;100560.03;5124995;27;20666;-61
2023/06/13 09:48:01;;;;;;;6.80;5.17;;;;;;;13.81;70.89;100561.75;5133079;27;20203;-63
2023/06/13 09:50:32;;;;;;;6.20;5.60;;;;;;;13.74;71.57;100567.94;5134678;27;20203;-64
2023/06/13 09:53:01;;;;;;;6.33;5.10;;;;;;;13.72;71.51;100569.66;5128630;27;20594;-63
2023/06/13 09:55:30;;;;;;;6.07;5.47;;;;;;;13.62;71.20;100570.69;5133787;27;20202;-63
2023/06/13 09:57:58;;;;;;;5.70;5.20;;;;;;;13.47;72.02;100562.28;5126447;27;20202;-63
2023/06/13 10:00:29;;;;;;;6.30;5.53;;;;;;;13.48;72.50;100564.00;5126246;27;20570;-61
2023/06/13 10:02:58;;;;;;;7.37;5.67;;;;;;;13.56;72.79;100563.03;5131042;27;20313;-65
2023/06/13 10:05:40;;;;;;;5.97;5.47;;;;;;;13.65;72.69;100562.88;5129995;27;20805;-62
2023/06/13 10:08:08;;;;;;;6.27;5.60;;;;;;;13.68;72.01;100557.66;5133998;27;20430;-61
2023/06/13 10:10:36;;;;;;;6.17;5.57;;;;;;;13.73;72.28;100561.91;5133837;27;20203;-62
2023/06/13 10:13:13;;;;;;;6.43;5.53;;;;;;;13.77;72.56;100550.59;5124750;27;20625;-62
2023/06/13 10:15:45;;;;;;;5.67;5.17;;;;;;;13.84;71.93;100553.06;5129892;27;20651;-62
2023/06/13 10:18:15;;;;;;;6.22;5.40;;;;;;;13.87;71.47;100553.88;5129127;27;20195;-62
2023/06/13 10:20:48;;;;;;;8.27;5.80;;;;;;;13.86;71.86;100554.75;5129465;27;20662;-62
2023/06/13 10:23:19;;;;;;;5.73;5.23;;;;;;;13.86;71.34;100547.00;5128643;27;20211;-64
2023/06/13 10:25:53;;;;;;;7.40;5.93;;;;;;;13.88;71.79;100550.44;5127741;27;20237;-61
2023/06/13 10:28:35;;;;;;;6.20;5.60;;;;;;;13.86;71.98;100547.00;5131226;27;20242;-63
2023/06/13 10:31:13;;;;;;;8.77;6.80;;;;;;;13.94;71.58;100539.94;5128806;27;20805;-63
2023/06/13 10:34:00;;;;;;;9.03;6.53;;;;;;;14.12;71.60;100537.91;5129014;27;20195;-61
2023/06/13 10:36:50;;;;;;;7.83;6.20;;;;;;;14.47;70.72;100540.69;5125248;27;20217;-60
2023/06/13 10:40:00;;;;;;;7.83;5.60;;;;;;;14.88;69.64;100536.44;5130793;27;20724;-62
2023/06/13 10:42:36;;;;;;;6.50;5.80;;;;;;;15.24;68.36;100523.50;5117403;27;20262;-62
2023/06/13 10:45:08;;;;;;;6.03;5.43;;;;;;;15.57;65.78;100528.78;5130760;27;20256;-61
2023/06/13 10:47:38;;;;;;;5.88;5.38;;;;;;;15.53;65.18;100524.56;5131102;27;20219;-61
2023/06/13 10:50:08;;;;;;;5.60;5.10;;;;;;;15.53;65.58;100524.56;5134839;27;20289;-61
2023/06/13 10:52:43;;;;;;;4.88;4.47;;;;;;;15.38;65.24;100526.63;5132763;27;20204;-60
2023/06/13 10:55:13;;;;;;;5.43;4.93;;;;;;;15.21;65.76;100523.59;5136598;27;20694;-62
2023/06/13 10:57:48;;;;;;;5.57;5.07;;;;;;;15.10;66.54;100533.38;5127794;27;20199;-63
2023/06/13 11:00:25;;;;;;;7.60;5.20;;;;;;;14.98;66.88;100530.16;5131724;27;20483;-62
2023/06/13 11:03:01;;;;;;;6.30;5.40;;;;;;;14.80;67.74;100530.56;5134117;27;20202;-61
2023/06/13 11:05:29;;;;;;;7.78;4.97;;;;;;;14.73;68.41;100541.94;5128711;27;20211;-62
2023/06/13 11:08:15;;;;;;;8.00;5.25;;;;;;;14.71;68.79;100530.72;5131083;27;20866;-61
2023/06/13 11:10:44;;;;;;;6.03;5.43;;;;;;;14.65;68.58;100523.91;5126994;27;20203;-63
2023/06/13 11:13:20;;;;;;;6.47;5.90;;;;;;;14.67;68.59;100523.91;5126494;27;20199;-66
2023/06/13 11:15:50;;;;;;;6.17;5.47;;;;;;;14.72;68.63;100542.81;5132397;27;20260;-66
2023/06/13 11:18:31;;;;;;;5.70;5.10;;;;;;;14.89;68.59;100522.56;5132055;27;20536;-67
2023/06/13 11:21:00;;;;;;;7.95;5.25;;;;;;;15.08;68.11;100520.41;5127183;27;20204;-67
2023/06/13 11:23:45;;;;;;;6.25;5.65;;;;;;;15.19;67.37;100512.38;5132855;27;20222;-66
2023/06/13 11:26:19;;;;;;;5.68;5.05;;;;;;;15.31;66.36;100525.06;5134370;27;20720;-68
2023/06/13 11:28:48;;;;;;;5.30;4.90;;;;;;;15.35;66.55;100516.31;5130908;27;20211;-65
2023/06/13 11:31:18;;;;;;;5.60;5.10;;;;;;;15.27;66.89;100523.44;5134421;27;20198;-66
2023/06/13 11:33:48;;;;;;;6.30;5.70;;;;;;;15.12;67.09;100524.63;5134042;27;20548;-66
2023/06/13 11:36:19;;;;;;;7.18;5.43;;;;;;;14.96;67.84;100529.31;5110142;27;20231;-68
2023/06/13 11:38:59;;;;;;;7.30;5.82;;;;;;;14.91;68.11;100530.31;5134153;27;20199;-67